Terminal Aerodrome Forecast
Issued by NWS Charleston, WV

Current Version | Previous Version | Graphics & Text | Print | Product List | Glossary On
Versions: 1 2 3 4 5 6 7 8 9 10 11 12 13 14 15 16 17 18 19 20 21 22 23
000
FTUS41 KRLX 240244 AAA
TAFEKN
TAF AMD
KEKN 240244Z 2403/2424 16003KT P6SM -RA OVC060
     FM240500 14012KT P6SM OVC050
     FM240900 13010G17KT P6SM -SHRA OVC060
     FM241500 13012G20KT P6SM -SHRA OVC030
     FM242000 12011G17KT P6SM -SHRA OVC025
     FM242300 12010KT P6SM -SHRA OVC035=

USA.gov is the U.S. government's official web portal to all federal, state and local government web resources and services.